createdAt,value
2017-03-31T00:00:23.366Z,17
2017-03-31T00:01:36.584Z,16.96
2017-03-31T00:02:49.797Z,16.97
2017-03-31T00:04:03.008Z,16.97
2017-03-31T00:05:16.242Z,16.97
2017-03-31T00:06:29.501Z,16.97
2017-03-31T00:07:42.723Z,16.97
2017-03-31T00:08:55.436Z,17.06
2017-03-31T00:10:08.138Z,16.89
2017-03-31T00:11:20.332Z,16.88
2017-03-31T00:12:33.558Z,16.96
2017-03-31T00:13:46.768Z,16.98
2017-03-31T00:14:59.978Z,16.94
2017-03-31T00:16:12.710Z,16.94
2017-03-31T00:17:25.981Z,16.91
2017-03-31T00:18:39.203Z,16.96
2017-03-31T00:19:51.950Z,16.91
2017-03-31T00:21:04.681Z,16.88
2017-03-31T00:22:17.895Z,16.94
2017-03-31T00:23:30.112Z,16.94
2017-03-31T00:24:43.365Z,16.85
2017-03-31T00:25:56.112Z,16.89
2017-03-31T00:27:08.845Z,16.86
2017-03-31T00:28:21.583Z,16.94
2017-03-31T00:29:33.788Z,16.89
2017-03-31T00:30:46.568Z,16.88
2017-03-31T00:31:59.279Z,16.88
2017-03-31T00:33:12.515Z,16.94
2017-03-31T00:34:25.783Z,16.96
2017-03-31T00:35:38.518Z,16.93
2017-03-31T00:36:51.775Z,16.91
2017-03-31T00:38:05.043Z,16.85
2017-03-31T00:39:18.318Z,16.85
2017-03-31T00:40:31.143Z,16.88
2017-03-31T00:41:44.346Z,16.88
2017-03-31T00:42:57.587Z,16.89
2017-03-31T00:44:10.822Z,16.96
2017-03-31T00:45:23.517Z,16.88
2017-03-31T00:46:36.725Z,16.86
2017-03-31T00:47:49.991Z,16.88
2017-03-31T00:49:02.733Z,16.88
2017-03-31T00:50:15.955Z,16.93
2017-03-31T00:51:28.180Z,16.91
2017-03-31T00:52:40.927Z,16.96
2017-03-31T00:53:53.661Z,16.89
2017-03-31T00:55:06.922Z,16.86
2017-03-31T00:56:20.164Z,16.93
2017-03-31T00:57:33.395Z,16.89
2017-03-31T00:58:46.105Z,16.96
2017-03-31T00:59:58.856Z,16.91
2017-03-31T01:01:11.601Z,16.91
2017-03-31T01:02:23.822Z,16.88
2017-03-31T01:03:37.058Z,16.93
2017-03-31T01:04:50.259Z,17.06
2017-03-31T01:06:02.964Z,17.08
2017-03-31T01:07:16.158Z,17.19
2017-03-31T01:08:29.396Z,17.25
2017-03-31T01:09:42.634Z,17.25
2017-03-31T01:10:55.905Z,17.25
2017-03-31T01:12:09.132Z,17.31
2017-03-31T01:13:21.887Z,17.33
2017-03-31T01:14:34.575Z,17.37
2017-03-31T01:15:47.825Z,17.33
2017-03-31T01:17:01.042Z,17.33
2017-03-31T01:18:12.729Z,17.36
2017-03-31T01:19:25.975Z,17.31
2017-03-31T01:20:39.188Z,17.41
2017-03-31T01:21:51.885Z,17.44
2017-03-31T01:23:05.107Z,17.37
2017-03-31T01:24:18.362Z,17.41
2017-03-31T01:25:31.075Z,17.36
2017-03-31T01:26:44.300Z,17.38
2017-03-31T01:27:57.555Z,17.37
2017-03-31T01:29:10.782Z,17.37
2017-03-31T01:30:24.025Z,17.36
2017-03-31T01:31:36.219Z,17.34
2017-03-31T01:32:49.444Z,17.4
2017-03-31T01:34:02.689Z,17.41
2017-03-31T01:35:15.897Z,17.36
2017-03-31T01:36:29.155Z,17.33
2017-03-31T01:37:42.392Z,17.31
2017-03-31T01:38:55.654Z,17.38
2017-03-31T01:40:08.376Z,17.23
2017-03-31T01:41:21.633Z,17.23
2017-03-31T01:42:34.846Z,17.16
2017-03-31T01:43:48.081Z,17.16
2017-03-31T01:45:01.402Z,17.21
2017-03-31T01:46:14.110Z,17.14
2017-03-31T01:47:27.351Z,17.14
2017-03-31T01:48:40.603Z,17.08
2017-03-31T01:49:52.792Z,17.07
2017-03-31T01:51:06.010Z,17.03
2017-03-31T01:52:19.279Z,17.11
2017-03-31T01:53:32.480Z,17.11
2017-03-31T01:54:45.711Z,17
2017-03-31T01:55:58.934Z,17.01
2017-03-31T01:57:12.178Z,17.04
2017-03-31T01:58:25.433Z,17
2017-03-31T01:59:38.658Z,16.91
2017-03-31T02:00:51.859Z,16.83
2017-03-31T02:02:05.178Z,16.91
2017-03-31T02:03:17.880Z,16.85
2017-03-31T02:04:31.155Z,16.85
2017-03-31T02:05:43.886Z,16.86
2017-03-31T02:06:57.091Z,16.96
2017-03-31T02:08:10.338Z,16.86
2017-03-31T02:09:23.049Z,16.85
2017-03-31T02:10:36.322Z,16.85
2017-03-31T02:11:49.041Z,16.88
2017-03-31T02:13:01.749Z,16.86
2017-03-31T02:14:14.997Z,16.83
2017-03-31T02:15:28.202Z,16.85
2017-03-31T02:16:40.924Z,16.86
2017-03-31T02:17:54.152Z,16.82
2017-03-31T02:19:07.398Z,16.83
2017-03-31T02:20:20.647Z,16.86
2017-03-31T02:21:33.395Z,16.97
2017-03-31T02:22:46.648Z,16.94
2017-03-31T02:23:59.853Z,16.96
2017-03-31T02:25:13.081Z,17.03
2017-03-31T02:26:25.859Z,16.94
2017-03-31T02:27:39.083Z,17.01
2017-03-31T02:28:52.309Z,17.03
2017-03-31T02:30:05.555Z,17.12
2017-03-31T02:31:18.824Z,17.19
2017-03-31T02:32:32.027Z,17.23
2017-03-31T02:33:45.270Z,17.36
2017-03-31T02:34:58.520Z,17.38
2017-03-31T02:36:11.291Z,17.37
2017-03-31T02:37:24.553Z,17.33
2017-03-31T02:38:37.781Z,17.33
2017-03-31T02:39:50.568Z,17.36
2017-03-31T02:41:03.306Z,17.43
2017-03-31T02:42:16.542Z,17.25
2017-03-31T02:43:29.311Z,17.36
2017-03-31T02:44:42.565Z,17.3
2017-03-31T02:45:55.297Z,17.31
2017-03-31T02:47:08.507Z,17.26
2017-03-31T02:48:21.760Z,17.3
2017-03-31T02:49:34.008Z,17.31
2017-03-31T02:50:47.263Z,17.3
2017-03-31T02:52:00.477Z,17.22
2017-03-31T02:53:13.710Z,17.28
2017-03-31T02:54:26.420Z,17.25
2017-03-31T02:55:38.646Z,17.22
2017-03-31T02:56:51.899Z,17.25
2017-03-31T02:58:05.217Z,17.26
2017-03-31T02:59:18.472Z,17.22
2017-03-31T03:00:31.693Z,17.28
2017-03-31T03:01:44.933Z,17.23
2017-03-31T03:02:58.182Z,17.31
2017-03-31T03:04:10.903Z,17.31
2017-03-31T03:05:24.179Z,17.34
2017-03-31T03:06:37.401Z,17.33
2017-03-31T03:07:50.097Z,17.36
2017-03-31T03:09:02.830Z,17.37
2017-03-31T03:10:16.082Z,17.37
2017-03-31T03:11:28.812Z,17.46
2017-03-31T03:12:41.530Z,17.46
2017-03-31T03:13:54.737Z,17.51
2017-03-31T03:15:07.459Z,17.48
2017-03-31T03:16:20.195Z,17.46
2017-03-31T03:17:32.912Z,17.41
2017-03-31T03:18:46.119Z,17.49
2017-03-31T03:19:58.302Z,17.54
2017-03-31T03:21:11.516Z,17.48
2017-03-31T03:22:24.792Z,17.51
2017-03-31T03:23:38.062Z,17.54
2017-03-31T03:24:51.306Z,17.55
2017-03-31T03:26:04.530Z,17.58
2017-03-31T03:27:17.755Z,17.64
2017-03-31T03:28:31.010Z,17.63
2017-03-31T03:29:44.246Z,17.66
2017-03-31T03:30:57.505Z,17.59
2017-03-31T03:32:10.725Z,17.63
2017-03-31T03:33:23.447Z,17.54
2017-03-31T03:34:36.680Z,17.55
2017-03-31T03:35:48.879Z,17.55
2017-03-31T03:37:01.632Z,17.51
2017-03-31T03:38:14.835Z,17.48
2017-03-31T03:39:27.544Z,17.4
2017-03-31T03:40:40.776Z,17.36
2017-03-31T03:41:53.532Z,17.33
2017-03-31T03:43:06.284Z,17.31
2017-03-31T03:44:19.528Z,17.38
2017-03-31T03:45:32.743Z,17.33
2017-03-31T03:46:45.470Z,17.33
2017-03-31T03:47:58.187Z,17.41
2017-03-31T03:49:11.477Z,17.37
2017-03-31T03:50:24.705Z,17.37
2017-03-31T03:51:36.897Z,17.43
2017-03-31T03:52:50.091Z,17.33
2017-03-31T03:54:03.304Z,17.34
2017-03-31T03:55:16.563Z,17.31
2017-03-31T03:56:29.275Z,17.34
2017-03-31T03:57:42.484Z,17.36
2017-03-31T03:58:55.709Z,17.21
2017-03-31T04:00:08.948Z,17.18
2017-03-31T04:01:22.173Z,17.19
2017-03-31T04:02:34.956Z,17.12
2017-03-31T04:03:47.670Z,17.06
2017-03-31T04:05:00.921Z,16.96
2017-03-31T04:06:14.175Z,16.96
2017-03-31T04:07:26.889Z,17
2017-03-31T04:08:40.131Z,16.96
2017-03-31T04:09:53.377Z,16.86
2017-03-31T04:11:05.602Z,16.88
2017-03-31T04:12:18.843Z,16.88
2017-03-31T04:13:32.074Z,16.89
2017-03-31T04:14:45.291Z,16.85
2017-03-31T04:15:58.511Z,16.93
2017-03-31T04:17:11.729Z,16.91
2017-03-31T04:18:24.978Z,16.97
2017-03-31T04:19:38.175Z,16.97
2017-03-31T04:20:51.452Z,17.01
2017-03-31T04:22:04.711Z,17.01
2017-03-31T04:23:17.454Z,17.07
2017-03-31T04:24:29.686Z,17.12
2017-03-31T04:25:42.952Z,17.08
2017-03-31T04:26:56.217Z,17.12
2017-03-31T04:28:09.498Z,17.14
2017-03-31T04:29:22.244Z,17.11
2017-03-31T04:30:35.475Z,17.04
2017-03-31T04:31:48.684Z,17.03
2017-03-31T04:33:01.386Z,17.06
2017-03-31T04:34:13.578Z,17.06
2017-03-31T04:35:26.785Z,17.12
2017-03-31T04:36:39.500Z,17.18
2017-03-31T04:37:52.716Z,17.15
2017-03-31T04:39:05.971Z,17.16
2017-03-31T04:40:18.154Z,17.21
2017-03-31T04:41:31.383Z,17.21
2017-03-31T04:42:44.586Z,17.16
2017-03-31T04:43:57.816Z,17.18
2017-03-31T04:45:11.038Z,17.19
2017-03-31T04:46:24.275Z,17.21
2017-03-31T04:47:37.507Z,17.23
2017-03-31T04:48:50.760Z,17.22
2017-03-31T04:50:04.007Z,17.22
2017-03-31T04:51:16.777Z,17.19
2017-03-31T04:52:29.032Z,17.16
2017-03-31T04:53:42.245Z,17.22
2017-03-31T04:54:55.445Z,17.18
2017-03-31T04:56:08.657Z,17.14
2017-03-31T04:57:21.899Z,17.14
2017-03-31T04:58:35.120Z,17.15
2017-03-31T04:59:47.841Z,17.01
2017-03-31T05:01:00.583Z,17.08
2017-03-31T05:02:13.333Z,17.01
2017-03-31T05:03:26.583Z,17.06
2017-03-31T05:04:39.820Z,16.97
2017-03-31T05:05:53.037Z,17.03
2017-03-31T05:07:06.283Z,16.91
2017-03-31T05:08:19.530Z,16.85
2017-03-31T05:09:32.750Z,16.82
2017-03-31T05:10:45.983Z,16.83
2017-03-31T05:11:59.211Z,16.89
2017-03-31T05:13:12.478Z,16.89
2017-03-31T05:14:25.209Z,16.88
2017-03-31T05:15:38.496Z,16.83
2017-03-31T05:16:51.779Z,16.89
2017-03-31T05:18:04.513Z,16.89
2017-03-31T05:19:17.775Z,16.91
2017-03-31T05:20:31.000Z,16.94
2017-03-31T05:21:43.735Z,16.98
2017-03-31T05:22:56.433Z,16.89
2017-03-31T05:24:08.646Z,16.96
2017-03-31T05:25:21.394Z,16.89
2017-03-31T05:26:34.637Z,16.85
2017-03-31T05:27:47.911Z,16.93
2017-03-31T05:29:01.140Z,16.86
2017-03-31T05:30:14.361Z,16.86
2017-03-31T05:31:27.630Z,16.78
2017-03-31T05:32:40.347Z,16.79
2017-03-31T05:33:53.571Z,16.61
2017-03-31T05:35:06.786Z,16.7
2017-03-31T05:36:19.519Z,16.61
2017-03-31T05:37:32.772Z,16.48
2017-03-31T05:38:44.982Z,16.52
2017-03-31T05:39:58.223Z,16.53
2017-03-31T05:41:11.494Z,16.45
2017-03-31T05:42:24.726Z,16.43
2017-03-31T05:43:38.147Z,16.42
2017-03-31T05:44:51.360Z,16.35
2017-03-31T05:46:04.061Z,16.38
2017-03-31T05:47:17.312Z,16.23
2017-03-31T05:48:30.535Z,16.15
2017-03-31T05:49:43.752Z,16.21
2017-03-31T05:50:56.489Z,16.14
2017-03-31T05:52:09.701Z,16.05
2017-03-31T05:53:22.954Z,16.14
2017-03-31T05:54:35.652Z,16.12
2017-03-31T05:55:48.878Z,16.14
2017-03-31T05:57:02.124Z,16.12
2017-03-31T05:58:15.363Z,16.08
2017-03-31T05:59:28.080Z,16.08
2017-03-31T06:00:40.803Z,16.09
2017-03-31T06:01:53.506Z,16.05
2017-03-31T06:03:06.708Z,16.04
2017-03-31T06:04:19.956Z,16.09
2017-03-31T06:05:33.167Z,16.04
2017-03-31T06:06:46.392Z,16.07
2017-03-31T06:07:59.631Z,16.05
2017-03-31T06:09:12.871Z,16
2017-03-31T06:10:25.083Z,16.04
2017-03-31T06:11:38.317Z,16.05
2017-03-31T06:12:51.577Z,16
2017-03-31T06:14:04.288Z,15.96
2017-03-31T06:15:16.504Z,16.05
2017-03-31T06:16:29.748Z,16.07
2017-03-31T06:17:42.963Z,16.08
2017-03-31T06:18:56.196Z,16
2017-03-31T06:20:09.494Z,15.96
2017-03-31T06:21:22.755Z,16.01
2017-03-31T06:22:35.976Z,16.02
2017-03-31T06:23:49.205Z,15.89
2017-03-31T06:25:01.417Z,16.09
2017-03-31T06:26:14.729Z,16.07
2017-03-31T06:27:27.931Z,15.94
2017-03-31T06:28:41.201Z,15.9
2017-03-31T06:29:54.486Z,16.11
2017-03-31T06:31:07.225Z,16.05
2017-03-31T06:32:20.466Z,16.05
2017-03-31T06:33:33.695Z,16.14
2017-03-31T06:34:46.979Z,16.07
2017-03-31T06:36:00.181Z,16.02
2017-03-31T06:37:13.416Z,16.04
2017-03-31T06:38:26.137Z,16.02
2017-03-31T06:39:39.408Z,16.14
2017-03-31T06:40:52.101Z,16.01
2017-03-31T06:42:05.332Z,15.97
2017-03-31T06:43:18.570Z,16.05
2017-03-31T06:44:31.795Z,16.05
2017-03-31T06:45:44.534Z,16.04
2017-03-31T06:46:57.753Z,16.01
2017-03-31T06:48:10.482Z,16.07
2017-03-31T06:49:23.193Z,16.01
2017-03-31T06:50:35.886Z,15.9
2017-03-31T06:51:49.123Z,16.07
2017-03-31T06:53:02.420Z,16.08
2017-03-31T06:54:15.619Z,16.07
2017-03-31T06:55:28.851Z,16.15
2017-03-31T06:56:41.573Z,16.17
2017-03-31T06:57:54.770Z,16.12
2017-03-31T06:59:07.473Z,15.97
2017-03-31T07:00:20.734Z,15.92
2017-03-31T07:01:33.974Z,16.05
2017-03-31T07:02:47.236Z,16.07
2017-03-31T07:03:59.945Z,16.02
2017-03-31T07:05:13.224Z,15.96
2017-03-31T07:06:26.417Z,16.01
2017-03-31T07:07:39.125Z,15.94
2017-03-31T07:08:51.824Z,15.92
2017-03-31T07:10:05.071Z,15.93
2017-03-31T07:11:18.295Z,15.94
2017-03-31T07:12:31.516Z,16.04
2017-03-31T07:13:44.735Z,16.07
2017-03-31T07:14:57.969Z,16.09
2017-03-31T07:16:10.687Z,16.01
2017-03-31T07:17:23.927Z,16.07
2017-03-31T07:18:37.186Z,16.08
2017-03-31T07:19:49.887Z,16.11
2017-03-31T07:21:03.148Z,15.96
2017-03-31T07:22:15.869Z,16.08
2017-03-31T07:23:29.107Z,16.09
2017-03-31T07:24:41.853Z,16.04
2017-03-31T07:25:55.098Z,16.01
2017-03-31T07:27:07.312Z,16.04
2017-03-31T07:28:20.534Z,16.08
2017-03-31T07:29:33.740Z,16.11
2017-03-31T07:30:45.969Z,16.11
2017-03-31T07:31:59.212Z,16.04
2017-03-31T07:33:12.418Z,16.07
2017-03-31T07:34:25.638Z,16.08
2017-03-31T07:35:38.836Z,16.01
2017-03-31T07:36:52.086Z,15.92
2017-03-31T07:38:05.320Z,15.94
2017-03-31T07:39:18.577Z,15.9
2017-03-31T07:40:31.340Z,15.87
2017-03-31T07:41:44.575Z,15.83
2017-03-31T07:42:57.803Z,15.87
2017-03-31T07:44:10.526Z,15.83
2017-03-31T07:45:23.746Z,15.84
2017-03-31T07:46:36.987Z,15.74
2017-03-31T07:47:49.720Z,15.84
2017-03-31T07:49:02.977Z,15.86
2017-03-31T07:50:16.240Z,15.84
2017-03-31T07:51:29.500Z,15.78
2017-03-31T07:52:42.183Z,15.69
2017-03-31T07:53:54.904Z,15.75
2017-03-31T07:55:07.618Z,15.71
2017-03-31T07:56:20.334Z,15.69
2017-03-31T07:57:33.560Z,15.68
2017-03-31T07:58:46.822Z,15.65
2017-03-31T08:00:00.071Z,15.6
2017-03-31T08:01:12.799Z,15.57
2017-03-31T08:02:26.014Z,15.53
2017-03-31T08:03:38.734Z,15.57
2017-03-31T08:04:51.953Z,15.49
2017-03-31T08:06:05.179Z,15.54
2017-03-31T08:07:18.407Z,15.53
2017-03-31T08:08:31.638Z,15.44
2017-03-31T08:09:44.378Z,15.47
2017-03-31T08:10:57.582Z,15.53
2017-03-31T08:12:10.784Z,15.54
2017-03-31T08:13:22.467Z,15.56
2017-03-31T08:14:36.101Z,15.49
2017-03-31T08:15:49.328Z,15.47
2017-03-31T08:17:02.029Z,15.47
2017-03-31T08:18:15.275Z,15.44
2017-03-31T08:19:28.495Z,15.51
2017-03-31T08:20:41.725Z,15.44
2017-03-31T08:21:54.951Z,15.44
2017-03-31T08:23:07.656Z,15.36
2017-03-31T08:24:20.897Z,15.39
2017-03-31T08:25:33.637Z,15.41
2017-03-31T08:26:45.882Z,15.43
2017-03-31T08:27:59.102Z,15.38
2017-03-31T08:29:11.825Z,15.39
2017-03-31T08:30:25.076Z,15.28
2017-03-31T08:31:37.304Z,15.31
2017-03-31T08:32:50.540Z,15.36
2017-03-31T08:34:03.758Z,15.23
2017-03-31T08:35:16.982Z,15.21
2017-03-31T08:36:30.199Z,15.34
2017-03-31T08:37:43.430Z,15.29
2017-03-31T08:38:55.624Z,15.32
2017-03-31T08:40:08.862Z,15.31
2017-03-31T08:41:22.129Z,15.29
2017-03-31T08:42:34.343Z,15.28
2017-03-31T08:43:47.060Z,15.27
2017-03-31T08:44:59.797Z,15.29
2017-03-31T08:46:12.524Z,15.19
2017-03-31T08:47:25.742Z,15.29
2017-03-31T08:48:38.994Z,15.19
2017-03-31T08:49:52.209Z,15.27
2017-03-31T08:51:04.944Z,15.41
2017-03-31T08:52:18.154Z,15.41
2017-03-31T08:53:31.411Z,15.54
2017-03-31T08:54:44.641Z,15.59
2017-03-31T08:55:56.824Z,15.56
2017-03-31T08:57:10.046Z,15.76
2017-03-31T08:58:23.278Z,15.75
2017-03-31T08:59:35.457Z,15.94
2017-03-31T09:00:48.180Z,15.96
2017-03-31T09:02:00.382Z,16.07
2017-03-31T09:03:13.606Z,16.07
2017-03-31T09:04:26.279Z,16.08
2017-03-31T09:05:38.970Z,16.14
2017-03-31T09:06:51.673Z,16.17
2017-03-31T09:08:04.930Z,16.23
2017-03-31T09:09:17.638Z,16.25
2017-03-31T09:10:30.865Z,16.24
2017-03-31T09:11:44.103Z,16.25
2017-03-31T09:12:56.796Z,16.31
2017-03-31T09:14:10.002Z,16.3
2017-03-31T09:15:23.266Z,16.39
2017-03-31T09:16:35.459Z,16.41
2017-03-31T09:17:48.718Z,16.43
2017-03-31T09:19:01.420Z,16.46
2017-03-31T09:20:14.629Z,16.43
2017-03-31T09:21:27.840Z,16.48
2017-03-31T09:22:40.559Z,16.52
2017-03-31T09:23:53.799Z,16.58
2017-03-31T09:25:06.008Z,16.46
2017-03-31T09:26:19.240Z,16.49
2017-03-31T09:27:32.437Z,16.53
2017-03-31T09:28:44.628Z,16.56
2017-03-31T09:29:57.323Z,16.6
2017-03-31T09:31:10.514Z,16.64
2017-03-31T09:32:23.223Z,16.61
2017-03-31T09:33:35.437Z,16.66
2017-03-31T09:34:48.130Z,16.6
2017-03-31T09:36:00.820Z,16.6
2017-03-31T09:37:14.035Z,16.63
2017-03-31T09:38:27.307Z,16.64
2017-03-31T09:39:40.511Z,16.67
2017-03-31T09:40:53.270Z,16.61
2017-03-31T09:42:06.008Z,16.68
2017-03-31T09:43:19.250Z,16.73
2017-03-31T09:44:32.493Z,16.68
2017-03-31T09:45:45.231Z,16.81
2017-03-31T09:46:57.938Z,16.71
2017-03-31T09:48:11.186Z,16.73
2017-03-31T09:49:23.923Z,16.7
2017-03-31T09:50:37.164Z,16.7
2017-03-31T09:51:49.905Z,16.61
2017-03-31T09:53:03.155Z,16.6
2017-03-31T09:54:16.401Z,16.66
2017-03-31T09:55:29.118Z,16.6
2017-03-31T09:56:42.344Z,16.73
2017-03-31T09:57:55.579Z,16.83
2017-03-31T09:59:08.803Z,16.85
2017-03-31T10:00:22.039Z,16.86
2017-03-31T10:01:35.306Z,16.96
2017-03-31T10:02:48.548Z,17.08
2017-03-31T10:04:01.261Z,17.11
2017-03-31T10:05:14.487Z,17.19
2017-03-31T10:06:27.706Z,17.22
2017-03-31T10:07:40.922Z,17.31
2017-03-31T10:08:54.145Z,17.36
2017-03-31T10:10:07.368Z,17.34
2017-03-31T10:11:20.584Z,17.33
2017-03-31T10:12:33.776Z,17.36
2017-03-31T10:13:47.037Z,17.38
2017-03-31T10:14:59.794Z,17.38
2017-03-31T10:16:12.495Z,17.34
2017-03-31T10:17:25.714Z,17.22
2017-03-31T10:18:37.927Z,17.3
2017-03-31T10:19:51.149Z,17.64
2017-03-31T10:21:04.368Z,18.14
2017-03-31T10:22:17.589Z,18.66
2017-03-31T10:23:30.807Z,19.36
2017-03-31T10:24:44.055Z,19.73
2017-03-31T10:25:56.796Z,20.29
2017-03-31T10:27:10.037Z,20.51
2017-03-31T10:28:23.259Z,21.07
2017-03-31T10:29:36.477Z,21.32
2017-03-31T10:30:49.189Z,21.27
2017-03-31T10:32:01.893Z,21.34
2017-03-31T10:33:15.182Z,21.03
2017-03-31T10:34:28.488Z,21.06
2017-03-31T10:35:41.707Z,21.17
2017-03-31T10:36:54.927Z,20.95
2017-03-31T10:38:08.139Z,20.74
2017-03-31T10:39:21.368Z,21.01
2017-03-31T10:40:34.605Z,20.88
2017-03-31T10:41:47.849Z,20.59
2017-03-31T10:43:00.580Z,20.05
2017-03-31T10:44:13.821Z,19.46
2017-03-31T10:45:26.531Z,19.06
2017-03-31T10:46:38.752Z,18.66
2017-03-31T10:47:51.989Z,18.5
2017-03-31T10:49:04.738Z,18.32
2017-03-31T10:50:17.446Z,18.12
2017-03-31T10:51:30.690Z,18.03
2017-03-31T10:52:43.902Z,17.95
2017-03-31T10:53:56.103Z,17.96
2017-03-31T10:55:09.320Z,17.97
2017-03-31T10:56:22.563Z,17.97
2017-03-31T10:57:35.834Z,18
2017-03-31T10:58:48.550Z,18.29
2017-03-31T11:00:01.240Z,18.85
2017-03-31T11:01:13.971Z,19.44
2017-03-31T11:02:27.211Z,20.26
2017-03-31T11:03:40.452Z,21.13
2017-03-31T11:04:52.639Z,21.34
2017-03-31T11:06:05.363Z,21.34
2017-03-31T11:07:18.074Z,21.25
2017-03-31T11:08:31.331Z,20.7
2017-03-31T11:09:44.584Z,20.52
2017-03-31T11:10:57.288Z,20.14
2017-03-31T11:12:10.042Z,19.68
2017-03-31T11:13:23.278Z,19.43
2017-03-31T11:14:35.991Z,19.26
2017-03-31T11:15:48.699Z,19.22
2017-03-31T11:17:01.407Z,19.66
2017-03-31T11:18:14.657Z,20.02
2017-03-31T11:19:27.915Z,19.91
2017-03-31T11:20:41.166Z,19.91
2017-03-31T11:21:53.380Z,19.86
2017-03-31T11:23:06.592Z,19.87
2017-03-31T11:24:19.320Z,20.26
2017-03-31T11:25:32.579Z,20.74
2017-03-31T11:26:45.298Z,21.01
2017-03-31T11:27:58.537Z,20.7
2017-03-31T11:29:11.763Z,20.38
2017-03-31T11:30:25.013Z,20.05
2017-03-31T11:31:37.714Z,19.86
2017-03-31T11:32:50.432Z,19.74
2017-03-31T11:34:03.740Z,19.58
2017-03-31T11:35:16.458Z,19.36
2017-03-31T11:36:29.680Z,19.18
2017-03-31T11:37:42.404Z,18.98
2017-03-31T11:38:55.653Z,18.85
2017-03-31T11:40:08.378Z,18.87
2017-03-31T11:41:21.629Z,19.04
2017-03-31T11:42:34.340Z,19.18
2017-03-31T11:43:47.600Z,19.47
2017-03-31T11:44:59.818Z,19.61
2017-03-31T11:46:13.043Z,20.06
2017-03-31T11:47:25.750Z,20.47
2017-03-31T11:48:38.512Z,20.59
2017-03-31T11:49:51.774Z,20.64
2017-03-31T11:51:04.483Z,20.82
2017-03-31T11:52:17.726Z,21.32
2017-03-31T11:53:30.446Z,21.69
2017-03-31T11:54:43.709Z,22
2017-03-31T11:55:56.955Z,21.71
2017-03-31T11:57:09.219Z,21.47
2017-03-31T11:58:22.468Z,21.4
2017-03-31T11:59:33.651Z,21.38
2017-03-31T12:00:46.923Z,21.24
2017-03-31T12:02:00.160Z,21.06
2017-03-31T12:03:12.883Z,21.13
2017-03-31T12:04:25.611Z,21.03
2017-03-31T12:05:38.871Z,21.46
2017-03-31T12:06:52.106Z,21.8
2017-03-31T12:08:04.838Z,21.9
2017-03-31T12:09:18.110Z,22.03
2017-03-31T12:10:31.362Z,21.88
2017-03-31T12:11:44.616Z,21.56
2017-03-31T12:12:56.450Z,21.25
2017-03-31T12:14:09.163Z,20.72
2017-03-31T12:15:22.385Z,20.23
2017-03-31T12:16:35.140Z,19.96
2017-03-31T12:17:47.852Z,19.73
2017-03-31T12:19:00.579Z,19.63
2017-03-31T12:20:13.820Z,19.41
2017-03-31T12:21:27.017Z,19.16
2017-03-31T12:22:40.270Z,19.04
2017-03-31T12:23:52.974Z,19.21
2017-03-31T12:25:05.180Z,19.78
2017-03-31T12:26:18.434Z,20.39
2017-03-31T12:27:31.803Z,20.55
2017-03-31T12:28:45.052Z,20.67
2017-03-31T12:29:57.261Z,20.74
2017-03-31T12:31:10.486Z,21.03
2017-03-31T12:32:23.752Z,21.27
2017-03-31T12:33:36.484Z,21.35
2017-03-31T12:34:49.224Z,21.32
2017-03-31T12:36:01.408Z,21.38
2017-03-31T12:37:14.138Z,21.24
2017-03-31T12:38:27.381Z,21.04
2017-03-31T12:39:40.145Z,20.92
2017-03-31T12:40:52.376Z,20.94
2017-03-31T12:42:05.627Z,21.22
2017-03-31T12:43:18.331Z,21.53
2017-03-31T12:44:31.583Z,21.68
2017-03-31T12:45:44.871Z,22.21
2017-03-31T12:46:57.583Z,22.76
2017-03-31T12:48:10.833Z,23.07
2017-03-31T12:49:23.563Z,22.94
2017-03-31T12:50:36.793Z,22.85
2017-03-31T12:51:50.044Z,22.72
2017-03-31T12:53:02.766Z,23.22
2017-03-31T12:54:16.068Z,23.95
2017-03-31T12:55:29.305Z,24.25
2017-03-31T12:56:42.536Z,24.6
2017-03-31T12:57:54.748Z,24.69
2017-03-31T12:59:07.961Z,24.62
2017-03-31T13:00:21.180Z,24.2
2017-03-31T13:01:33.900Z,23.79
2017-03-31T13:02:47.138Z,23.55
2017-03-31T13:04:00.402Z,23.78
2017-03-31T13:05:13.697Z,24.15
2017-03-31T13:06:26.920Z,24.16
2017-03-31T13:07:40.194Z,24
2017-03-31T13:08:53.454Z,24.06
2017-03-31T13:10:06.181Z,23.9
2017-03-31T13:11:18.901Z,23.61
2017-03-31T13:12:32.155Z,23.75
2017-03-31T13:13:44.888Z,23.79
2017-03-31T13:14:58.155Z,24
2017-03-31T13:16:10.882Z,24.5
2017-03-31T13:17:23.604Z,24.95
2017-03-31T13:18:36.819Z,25.32
2017-03-31T13:19:50.070Z,25
2017-03-31T13:21:03.350Z,24.47
2017-03-31T13:22:16.557Z,23.58
2017-03-31T13:23:29.805Z,22.7
2017-03-31T13:24:43.049Z,22
2017-03-31T13:25:55.803Z,21.47
2017-03-31T13:27:09.062Z,21.27
2017-03-31T13:28:22.376Z,21.16
2017-03-31T13:29:35.128Z,21.01
2017-03-31T13:30:47.362Z,20.89
2017-03-31T13:32:00.602Z,21.04
2017-03-31T13:33:13.396Z,21.1
2017-03-31T13:34:26.721Z,21.07
2017-03-31T13:35:39.942Z,21.04
2017-03-31T13:36:53.183Z,20.87
2017-03-31T13:38:06.444Z,20.82
2017-03-31T13:39:19.206Z,20.8
2017-03-31T13:40:32.423Z,20.87
2017-03-31T13:41:45.655Z,21.09
2017-03-31T13:42:58.368Z,21.13
2017-03-31T13:44:11.590Z,21.32
2017-03-31T13:45:24.364Z,21.44
2017-03-31T13:46:37.617Z,21.99
2017-03-31T13:47:50.880Z,22.75
2017-03-31T13:49:04.087Z,23.07
2017-03-31T13:50:16.829Z,23.01
2017-03-31T13:51:30.095Z,22.54
2017-03-31T13:52:43.335Z,22.14
2017-03-31T13:53:56.611Z,22.07
2017-03-31T13:55:09.864Z,22.18
2017-03-31T13:56:23.126Z,22.65
2017-03-31T13:57:36.365Z,23.28
2017-03-31T13:58:49.593Z,23.27
2017-03-31T14:00:02.319Z,23.17
2017-03-31T14:01:15.074Z,23.19
2017-03-31T14:02:28.309Z,22.94
2017-03-31T14:03:41.568Z,22.83
2017-03-31T14:04:54.813Z,22.98
2017-03-31T14:06:07.525Z,22.73
2017-03-31T14:07:20.282Z,22.88
2017-03-31T14:08:33.531Z,22.95
2017-03-31T14:09:46.790Z,23.01
2017-03-31T14:10:59.559Z,23.25
2017-03-31T14:12:12.296Z,23.39
2017-03-31T14:13:25.557Z,23.17
2017-03-31T14:14:38.797Z,22.94
2017-03-31T14:15:52.038Z,23.09
2017-03-31T14:17:05.282Z,23.27
2017-03-31T14:18:18.032Z,23.68
2017-03-31T14:19:30.726Z,23.87
2017-03-31T14:20:43.996Z,23.8
2017-03-31T14:21:57.257Z,23.6
2017-03-31T14:23:09.993Z,23.38
2017-03-31T14:24:22.766Z,22.97
2017-03-31T14:25:36.034Z,22.72
2017-03-31T14:26:49.265Z,22.55
2017-03-31T14:28:02.495Z,22.52
2017-03-31T14:29:15.210Z,22.67
2017-03-31T14:30:27.935Z,23.07
2017-03-31T14:31:41.155Z,23.68
2017-03-31T14:32:54.391Z,23.57
2017-03-31T14:34:07.642Z,23.31
2017-03-31T14:35:20.867Z,23.01
2017-03-31T14:36:34.112Z,22.8
2017-03-31T14:37:46.875Z,22.43
2017-03-31T14:39:00.142Z,22.6
2017-03-31T14:40:13.341Z,23.2
2017-03-31T14:41:26.622Z,23.1
2017-03-31T14:42:39.405Z,22.88
2017-03-31T14:43:52.138Z,23.04
2017-03-31T14:45:04.849Z,22.8
2017-03-31T14:46:17.600Z,22.79
2017-03-31T14:47:30.862Z,22.86
2017-03-31T14:48:43.602Z,23
2017-03-31T14:49:56.361Z,22.79
2017-03-31T14:51:09.613Z,22.65
2017-03-31T14:52:22.859Z,22.82
2017-03-31T14:53:35.571Z,23.2
2017-03-31T14:54:48.839Z,23.85
2017-03-31T14:56:01.556Z,24.61
2017-03-31T14:57:14.309Z,24.81
2017-03-31T14:58:27.021Z,24.35
2017-03-31T14:59:40.253Z,24.03
2017-03-31T15:00:53.556Z,23.73
2017-03-31T15:02:06.778Z,23.38
2017-03-31T15:03:20.028Z,22.98
2017-03-31T15:04:32.730Z,22.64
2017-03-31T15:05:45.458Z,22.68
2017-03-31T15:06:58.217Z,22.82
2017-03-31T15:08:10.961Z,22.77
2017-03-31T15:09:23.688Z,22.68
2017-03-31T15:10:36.978Z,22.64
2017-03-31T15:11:49.723Z,22.75
2017-03-31T15:13:02.455Z,22.75
2017-03-31T15:14:15.194Z,22.85
2017-03-31T15:15:28.442Z,23
2017-03-31T15:16:40.640Z,23.17
2017-03-31T15:17:53.924Z,23.36
2017-03-31T15:19:07.159Z,23.54
2017-03-31T15:20:19.915Z,23.78
2017-03-31T15:21:33.154Z,24.35
2017-03-31T15:22:45.388Z,24.93
2017-03-31T15:23:58.650Z,25
2017-03-31T15:25:11.384Z,24.8
2017-03-31T15:26:23.602Z,24.47
2017-03-31T15:27:36.882Z,24.58
2017-03-31T15:28:50.168Z,23.97
2017-03-31T15:30:03.439Z,23.73
2017-03-31T15:31:16.225Z,23.79
2017-03-31T15:32:29.485Z,24.18
2017-03-31T15:33:41.726Z,24.5
2017-03-31T15:34:54.971Z,24.64
2017-03-31T15:36:07.696Z,24.35
2017-03-31T15:37:20.942Z,23.91
2017-03-31T15:38:34.187Z,23.85
2017-03-31T15:39:47.433Z,23.66
2017-03-31T15:40:59.647Z,23.73
2017-03-31T15:42:12.871Z,23.88
2017-03-31T15:43:26.144Z,24.47